Time;durP1;ratioP1;P1;durP2;ratioP2;P2;SDS_P1;SDS_P2;PMS_P1;PMS_P2;Temp;Humidity;BMP_temperature;BMP_pressure;BME280_temperature;BME280_humidity;BME280_pressure;Samples;Min_cycle;Max_cycle;Signal;HPM_P1;HPM_P2
2023/04/10 00:00:44;0.00;0.00;0.62;0.00;0.00;0.62;5.10;4.60;;;24.40;21.80;;;;;;2268294;61;20363;-67
2023/04/10 00:03:30;0.00;0.00;0.62;0.00;0.00;0.62;6.10;5.33;;;24.30;21.80;;;;;;2268530;61;20367;-65
2023/04/10 00:06:15;0.00;0.00;0.62;0.00;0.00;0.62;4.63;4.20;;;24.30;21.80;;;;;;2268864;61;20356;-65
2023/04/10 00:08:59;0.00;0.00;0.62;0.00;0.00;0.62;5.77;4.40;;;24.30;21.80;;;;;;2265212;61;20390;-62
2023/04/10 00:11:45;0.00;0.00;0.62;0.00;0.00;0.62;5.57;5.07;;;24.30;21.80;;;;;;2268623;61;20410;-63
2023/04/10 00:14:30;0.00;0.00;0.62;0.00;0.00;0.62;4.67;4.17;;;24.30;21.80;;;;;;2268645;61;20895;-63
2023/04/10 00:17:15;0.00;0.00;0.62;0.00;0.00;0.62;5.60;4.60;;;24.30;21.80;;;;;;2268493;61;20379;-63
2023/04/10 00:20:00;0.00;0.00;0.62;0.00;0.00;0.62;6.00;5.27;;;24.30;21.80;;;;;;2268660;61;20442;-63
2023/04/10 00:22:44;0.00;0.00;0.62;0.00;0.00;0.62;5.27;4.77;;;24.30;21.80;;;;;;2268507;61;20367;-63
2023/04/10 00:25:29;0.00;0.00;0.62;0.00;0.00;0.62;4.97;4.47;;;24.30;21.80;;;;;;2268550;61;20891;-64
2023/04/10 00:28:16;0.00;0.00;0.62;0.00;0.00;0.62;5.27;4.77;;;24.30;21.80;;;;;;2268544;61;20430;-63
2023/04/10 00:31:00;0.00;0.00;0.62;0.00;0.00;0.62;5.17;4.70;;;24.30;21.80;;;;;;2268315;61;20410;-63
2023/04/10 00:33:45;0.00;0.00;0.62;0.00;0.00;0.62;4.77;4.37;;;24.30;21.80;;;;;;2265146;61;20941;-63
2023/04/10 00:36:30;0.00;0.00;0.62;0.00;0.00;0.62;5.60;4.80;;;24.30;21.80;;;;;;2268541;61;20486;-63
2023/04/10 00:39:15;0.00;0.00;0.62;0.00;0.00;0.62;5.10;4.70;;;24.30;21.80;;;;;;2268207;61;20430;-63
2023/04/10 00:42:01;0.00;0.00;0.62;0.00;0.00;0.62;5.80;5.20;;;24.30;21.80;;;;;;2268845;61;20399;-66
2023/04/10 00:44:47;0.00;0.00;0.62;0.00;0.00;0.62;5.70;5.10;;;24.20;21.70;;;;;;2265039;61;20363;-66
2023/04/10 00:47:31;0.00;0.00;0.62;0.00;0.00;0.62;6.20;4.20;;;24.30;21.80;;;;;;2267775;61;20415;-65
2023/04/10 00:50:17;0.00;0.00;0.62;0.00;0.00;0.62;5.50;4.90;;;24.20;21.70;;;;;;2265047;61;20387;-64
2023/04/10 00:53:02;0.00;0.00;0.62;0.00;0.00;0.62;5.60;5.10;;;24.20;21.70;;;;;;2265016;61;20797;-63
2023/04/10 00:55:49;0.00;0.00;0.62;0.00;0.00;0.62;5.73;5.20;;;24.20;21.70;;;;;;2268372;61;20387;-63
2023/04/10 00:58:33;0.00;0.00;0.62;0.00;0.00;0.62;5.23;4.67;;;24.20;21.70;;;;;;2268691;61;20494;-65
2023/04/10 01:01:20;0.00;0.00;0.62;0.00;0.00;0.62;5.80;5.20;;;24.20;22.00;;;;;;2268344;61;20370;-66
2023/04/10 01:04:05;0.00;0.00;0.62;0.00;0.00;0.62;5.63;5.07;;;24.20;21.70;;;;;;2265444;61;20378;-63
2023/04/10 01:06:58;0.00;0.00;0.62;0.00;0.00;0.62;5.83;5.20;;;24.20;21.70;;;;;;2268513;61;20410;-67
2023/04/10 01:09:49;0.00;0.00;0.62;0.00;0.00;0.62;5.97;5.27;;;24.20;21.70;;;;;;2267922;61;20934;-63
2023/04/10 01:12:50;0.00;0.00;0.62;0.00;0.00;0.62;5.23;4.73;;;24.20;21.70;;;;;;2268459;61;20367;-66
2023/04/10 01:15:46;0.00;0.00;0.62;0.00;0.00;0.62;6.03;5.43;;;24.20;21.70;;;;;;2265263;61;20406;-64
2023/04/10 01:18:40;0.00;0.00;0.62;0.00;0.00;0.62;6.20;5.60;;;24.20;21.70;;;;;;2268473;61;20422;-67
2023/04/10 01:21:26;0.00;0.00;0.62;0.00;0.00;0.62;6.53;5.10;;;24.10;21.60;;;;;;2268550;61;20434;-63
2023/04/10 01:24:33;0.00;0.00;0.62;0.00;0.00;0.62;5.20;4.70;;;24.20;21.70;;;;;;2268224;61;20776;-63
2023/04/10 01:27:39;0.00;0.00;0.62;0.00;0.00;0.62;6.00;5.40;;;24.10;21.60;;;;;;2265385;61;20415;-63
2023/04/10 01:30:26;0.00;0.00;0.62;0.00;0.00;0.62;6.00;5.17;;;24.10;21.60;;;;;;2264701;61;20387;-63
2023/04/10 01:33:16;0.00;0.00;0.62;0.00;0.00;0.62;5.60;5.00;;;24.10;21.60;;;;;;2265162;61;20787;-63
2023/04/10 01:36:06;0.00;0.00;0.62;0.00;0.00;0.62;6.33;5.60;;;24.10;21.70;;;;;;2265198;61;20992;-63
2023/04/10 01:38:53;0.00;0.00;0.62;0.00;0.00;0.62;5.77;5.17;;;24.10;21.60;;;;;;2267735;61;20788;-64
2023/04/10 01:41:42;0.00;0.00;0.62;0.00;0.00;0.62;5.63;5.13;;;24.10;21.60;;;;;;2265290;61;20362;-63
2023/04/10 01:44:31;0.00;0.00;0.62;0.00;0.00;0.62;6.30;5.70;;;24.10;21.60;;;;;;2265233;61;20359;-65
2023/04/10 01:47:18;0.00;0.00;0.62;0.00;0.00;0.62;5.80;5.20;;;24.10;21.60;;;;;;2265008;61;20426;-67
2023/04/10 01:50:05;0.00;0.00;0.62;0.00;0.00;0.62;5.67;5.07;;;24.10;21.60;;;;;;2268109;61;20387;-63
2023/04/10 01:52:51;0.00;0.00;0.62;0.00;0.00;0.62;5.87;5.30;;;24.10;21.60;;;;;;2265098;61;20931;-63
2023/04/10 01:55:44;0.00;0.00;0.62;0.00;0.00;0.62;5.80;5.20;;;24.10;21.60;;;;;;2265075;61;20787;-63
2023/04/10 01:58:31;0.00;0.00;0.62;0.00;0.00;0.62;5.13;4.63;;;24.10;21.60;;;;;;2265153;61;20447;-63
2023/04/10 02:01:20;0.00;0.00;0.62;0.00;0.00;0.62;6.40;5.80;;;24.10;21.60;;;;;;2264967;61;20363;-63
2023/04/10 02:04:06;0.00;0.00;0.62;0.00;0.00;0.62;6.80;6.20;;;24.10;21.60;;;;;;2265128;61;20455;-63
2023/04/10 02:07:02;0.00;0.00;0.62;0.00;0.00;0.62;6.77;6.10;;;24.10;21.60;;;;;;2269139;61;20751;-63
2023/04/10 02:09:57;0.00;0.00;0.62;0.00;0.00;0.62;5.87;5.33;;;24.10;21.60;;;;;;2268473;61;20375;-64
2023/04/10 02:12:52;0.00;0.00;0.62;0.00;0.00;0.62;5.97;5.37;;;24.10;21.60;;;;;;2265943;61;20543;-63
2023/04/10 02:15:41;0.00;0.00;0.62;0.00;0.00;0.62;6.40;5.80;;;24.10;21.60;;;;;;2268983;61;20430;-63
2023/04/10 02:18:26;0.00;0.00;0.62;0.00;0.00;0.62;5.90;5.40;;;24.00;21.60;;;;;;2266023;61;20466;-63
2023/04/10 02:21:13;0.00;0.00;0.62;0.00;0.00;0.62;5.97;5.40;;;24.00;21.60;;;;;;2268040;61;20431;-63
2023/04/10 02:23:59;0.00;0.00;0.62;0.00;0.00;0.62;6.00;5.50;;;24.00;21.60;;;;;;2268948;61;20875;-63
2023/04/10 02:26:45;0.00;0.00;0.62;0.00;0.00;0.62;5.53;5.03;;;24.00;21.60;;;;;;2269226;61;20898;-63
2023/04/10 02:29:30;0.00;0.00;0.62;0.00;0.00;0.62;6.80;5.40;;;24.00;21.60;;;;;;2268569;61;20494;-63
2023/04/10 02:32:16;0.00;0.00;0.62;0.00;0.00;0.62;6.90;6.20;;;24.00;21.60;;;;;;2268668;61;20387;-65
2023/04/10 02:35:01;0.00;0.00;0.62;0.00;0.00;0.62;6.00;5.40;;;24.00;21.60;;;;;;2268947;61;20383;-64
2023/04/10 02:37:49;0.00;0.00;0.62;0.00;0.00;0.62;6.47;5.87;;;24.00;21.60;;;;;;2265686;61;20397;-62
2023/04/10 02:40:36;0.00;0.00;0.62;0.00;0.00;0.62;6.43;5.83;;;24.00;21.60;;;;;;2268569;61;20371;-63
2023/04/10 02:43:32;0.00;0.00;0.62;0.00;0.00;0.62;5.77;5.17;;;24.00;21.60;;;;;;2265799;61;20930;-63
2023/04/10 02:46:17;0.00;0.00;0.62;0.00;0.00;0.62;5.47;4.90;;;24.00;21.60;;;;;;2265248;61;20754;-63
2023/04/10 02:49:02;0.00;0.00;0.62;0.00;0.00;0.62;6.60;6.00;;;24.00;21.60;;;;;;2265333;61;20466;-63
2023/04/10 02:51:47;0.00;0.00;0.62;0.00;0.00;0.62;6.33;5.70;;;24.00;21.60;;;;;;2265655;61;20362;-66
2023/04/10 02:54:33;0.00;0.00;0.62;0.00;0.00;0.62;6.00;5.40;;;24.00;21.60;;;;;;2265401;61;20403;-63
2023/04/10 02:57:18;0.00;0.00;0.62;0.00;0.00;0.62;5.50;5.00;;;24.00;21.60;;;;;;2265939;61;20387;-63
2023/04/10 03:00:04;0.00;0.00;0.62;0.00;0.00;0.62;5.87;5.27;;;24.00;21.60;;;;;;2265220;61;20430;-62
2023/04/10 03:03:02;0.00;0.00;0.62;0.00;0.00;0.62;6.40;5.80;;;23.90;21.50;;;;;;2265871;61;20474;-63
2023/04/10 03:05:56;0.00;0.00;0.62;0.00;0.00;0.62;6.50;5.73;;;24.00;21.60;;;;;;2265738;61;20765;-63
2023/04/10 03:08:46;0.00;0.00;0.62;0.00;0.00;0.62;6.80;6.10;;;23.90;21.50;;;;;;2265467;61;20951;-63
2023/04/10 03:11:33;0.00;0.00;0.62;0.00;0.00;0.62;5.57;4.97;;;23.90;21.50;;;;;;2265611;61;20455;-63
2023/04/10 03:14:18;0.00;0.00;0.62;0.00;0.00;0.62;6.63;6.03;;;23.90;21.50;;;;;;2265584;61;20367;-64
2023/04/10 03:17:03;0.00;0.00;0.62;0.00;0.00;0.62;5.57;5.00;;;23.90;21.50;;;;;;2265349;61;20374;-63
2023/04/10 03:19:49;0.00;0.00;0.62;0.00;0.00;0.62;6.33;5.17;;;23.90;21.50;;;;;;2265272;61;20383;-63
2023/04/10 03:22:34;0.00;0.00;0.62;0.00;0.00;0.62;6.70;6.10;;;23.90;21.50;;;;;;2265400;61;20418;-67
2023/04/10 03:25:19;0.00;0.00;0.62;0.00;0.00;0.62;6.47;5.40;;;23.90;21.50;;;;;;2265825;61;20410;-65
2023/04/10 03:28:06;0.00;0.00;0.62;0.00;0.00;0.62;6.20;5.60;;;23.90;21.50;;;;;;2265350;61;20854;-63
2023/04/10 03:30:51;0.00;0.00;0.62;0.00;0.00;0.62;7.30;6.60;;;23.90;21.50;;;;;;2262386;61;20360;-63
2023/04/10 03:33:35;0.00;0.00;0.62;0.00;0.00;0.62;5.17;4.67;;;23.90;21.50;;;;;;2265761;61;20375;-63
2023/04/10 03:36:21;0.00;0.00;0.62;0.00;0.00;0.62;6.60;5.40;;;23.90;21.50;;;;;;2265413;61;20384;-64
2023/04/10 03:39:05;0.00;0.00;0.62;0.00;0.00;0.62;6.20;5.60;;;23.90;21.50;;;;;;2265174;61;20383;-63
2023/04/10 03:41:50;0.00;0.00;0.62;0.00;0.00;0.62;5.90;5.40;;;23.90;21.50;;;;;;2268884;61;20367;-63
2023/04/10 03:44:36;0.00;0.00;0.62;0.00;0.00;0.62;5.30;4.80;;;23.90;21.50;;;;;;2264898;61;20405;-64
2023/04/10 03:47:21;0.00;0.00;0.62;0.00;0.00;0.62;5.90;5.30;;;23.90;21.50;;;;;;2269040;61;20391;-66
2023/04/10 03:50:09;0.00;0.00;0.62;0.00;0.00;0.62;5.33;4.83;;;23.80;21.50;;;;;;2265173;61;20370;-63
2023/04/10 03:53:03;0.00;0.00;0.62;0.00;0.00;0.62;5.97;5.37;;;23.80;21.50;;;;;;2265228;61;20892;-63
2023/04/10 03:55:48;0.00;0.00;0.62;0.00;0.00;0.62;6.03;5.43;;;23.90;21.50;;;;;;2265529;61;20919;-63
2023/04/10 03:58:33;0.00;0.00;0.62;0.00;0.00;0.62;5.43;4.90;;;23.80;21.50;;;;;;2265669;61;20479;-63
2023/04/10 04:01:21;0.00;0.00;0.62;0.00;0.00;0.62;5.60;5.10;;;23.80;21.50;;;;;;2268563;61;20448;-63
2023/04/10 04:04:30;0.00;0.00;0.62;0.00;0.00;0.62;5.30;4.73;;;23.80;21.50;;;;;;2265524;61;20456;-63
2023/04/10 04:07:38;0.00;0.00;0.62;0.00;0.00;0.62;6.10;5.50;;;23.80;21.50;;;;;;2265308;61;20915;-64
2023/04/10 04:10:33;0.00;0.00;0.62;0.00;0.00;0.62;6.50;5.80;;;23.80;21.50;;;;;;2265108;61;20379;-63
2023/04/10 04:13:33;0.00;0.00;0.62;0.00;0.00;0.62;5.53;5.03;;;23.80;21.50;;;;;;2265433;61;20367;-63
2023/04/10 04:16:29;0.00;0.00;0.62;0.00;0.00;0.62;5.63;5.07;;;23.80;21.50;;;;;;2265222;61;20809;-63
2023/04/10 04:19:28;0.00;0.00;0.62;0.00;0.00;0.62;5.50;4.97;;;23.80;21.60;;;;;;2264995;61;20455;-63
2023/04/10 04:22:35;0.00;0.00;0.62;0.00;0.00;0.62;5.00;4.50;;;23.80;21.60;;;;;;2259415;61;20838;-63
2023/04/10 04:25:32;0.00;0.00;0.62;0.00;0.00;0.62;5.70;5.20;;;23.80;21.50;;;;;;2268646;61;20398;-63
2023/04/10 04:28:36;0.00;0.00;0.62;0.00;0.00;0.62;5.20;4.70;;;23.80;21.60;;;;;;2266920;61;20433;-64
2023/04/10 04:31:31;0.00;0.00;0.62;0.00;0.00;0.62;5.60;5.10;;;23.80;21.60;;;;;;2268792;61;20405;-63
2023/04/10 04:34:39;0.00;0.00;0.62;0.00;0.00;0.62;6.30;5.30;;;23.70;21.50;;;;;;2265298;61;20378;-63
2023/04/10 04:37:53;0.00;0.00;0.62;0.00;0.00;0.62;5.47;4.97;;;23.70;21.50;;;;;;2265133;61;20465;-63
2023/04/10 04:41:05;0.00;0.00;0.62;0.00;0.00;0.62;5.50;5.00;;;23.70;21.50;;;;;;2266971;61;20378;-63
2023/04/10 04:44:18;0.00;0.00;0.62;0.00;0.00;0.62;5.77;5.23;;;23.70;21.50;;;;;;2251166;61;20998;-63
2023/04/10 04:47:24;0.00;0.00;0.62;0.00;0.00;0.62;5.53;5.03;;;23.70;21.50;;;;;;2247402;61;20447;-66
2023/04/10 04:50:22;0.00;0.00;0.62;0.00;0.00;0.62;4.97;4.47;;;23.70;21.50;;;;;;2248131;61;20363;-66
2023/04/10 04:53:07;0.00;0.00;0.62;0.00;0.00;0.62;5.00;4.43;;;23.70;21.60;;;;;;2250956;61;20430;-63
2023/04/10 04:56:22;0.00;0.00;0.62;0.00;0.00;0.62;5.37;4.87;;;23.70;21.50;;;;;;2265133;61;20471;-63
2023/04/10 04:59:29;0.00;0.00;0.62;0.00;0.00;0.62;4.83;4.10;;;23.70;21.50;;;;;;2267946;61;20363;-68
2023/04/10 05:02:34;0.00;0.00;0.62;0.00;0.00;0.62;4.50;4.10;;;23.70;21.50;;;;;;2265512;61;20363;-67
2023/04/10 05:05:44;0.00;0.00;0.62;0.00;0.00;0.62;4.90;4.43;;;23.70;21.50;;;;;;2268729;61;20747;-63
2023/04/10 05:08:35;0.00;0.00;0.62;0.00;0.00;0.62;5.53;4.70;;;23.70;21.50;;;;;;2268757;61;20406;-63
2023/04/10 05:11:43;0.00;0.00;0.62;0.00;0.00;0.62;4.50;3.97;;;23.70;21.50;;;;;;2263497;61;20413;-63
2023/04/10 05:14:56;0.00;0.00;0.62;0.00;0.00;0.62;4.43;4.03;;;23.70;21.50;;;;;;2268280;61;20362;-63
2023/04/10 05:18:08;0.00;0.00;0.62;0.00;0.00;0.62;4.97;4.30;;;23.70;22.10;;;;;;2265471;61;20438;-65
2023/04/10 05:21:13;0.00;0.00;0.62;0.00;0.00;0.62;4.73;4.33;;;23.70;21.50;;;;;;2264749;61;20359;-63
2023/04/10 05:24:16;0.00;0.00;0.62;0.00;0.00;0.62;5.80;4.73;;;23.60;21.40;;;;;;2268605;61;20402;-63
2023/04/10 05:27:27;0.00;0.00;0.62;0.00;0.00;0.62;4.80;4.27;;;23.60;21.40;;;;;;2268299;61;20870;-64
2023/04/10 05:30:12;0.00;0.00;0.62;0.00;0.00;0.62;4.70;4.30;;;23.60;21.50;;;;;;2267876;61;20946;-63
2023/04/10 05:33:15;0.00;0.00;0.62;0.00;0.00;0.62;4.60;4.20;;;23.60;21.50;;;;;;2265093;61;20359;-66
2023/04/10 05:36:19;0.00;0.00;0.62;0.00;0.00;0.62;4.30;3.90;;;23.60;21.40;;;;;;2268146;61;20441;-63
2023/04/10 05:39:12;0.00;0.00;0.62;0.00;0.00;0.62;4.53;4.10;;;23.60;21.40;;;;;;2264700;61;20410;-63
2023/04/10 05:42:16;0.00;0.00;0.62;0.00;0.00;0.62;5.17;4.67;;;23.60;21.40;;;;;;2268683;61;20406;-63
2023/04/10 05:45:08;0.00;0.00;0.62;0.00;0.00;0.62;4.40;4.00;;;23.60;21.50;;;;;;2264929;61;20363;-63
2023/04/10 05:48:24;0.00;0.00;0.62;0.00;0.00;0.62;4.90;4.40;;;23.60;21.40;;;;;;2265076;61;20433;-63
2023/04/10 05:51:42;0.00;0.00;0.62;0.00;0.00;0.62;4.30;3.90;;;23.60;21.40;;;;;;2258847;61;20812;-63
2023/04/10 05:54:45;0.00;0.00;0.62;0.00;0.00;0.62;4.70;4.30;;;23.60;21.40;;;;;;2259171;61;20403;-63
2023/04/10 05:57:50;0.00;0.00;0.62;0.00;0.00;0.62;4.90;4.30;;;23.60;21.50;;;;;;2255920;61;20971;-63
2023/04/10 06:00:50;0.00;0.00;0.62;0.00;0.00;0.62;4.10;3.70;;;23.60;21.40;;;;;;2259615;61;20378;-67
2023/04/10 06:03:58;0.00;0.00;0.62;0.00;0.00;0.62;5.83;4.40;;;23.60;21.50;;;;;;2265163;61;20900;-63
2023/04/10 06:06:43;0.00;0.00;0.62;0.00;0.00;0.62;4.63;4.20;;;23.60;21.50;;;;;;2264881;61;20446;-63
2023/04/10 06:09:29;0.00;0.00;0.62;0.00;0.00;0.62;5.07;4.50;;;23.60;21.40;;;;;;2264988;61;20394;-63
2023/04/10 06:12:13;0.00;0.00;0.62;0.00;0.00;0.62;4.97;4.47;;;23.60;21.50;;;;;;2268521;61;20364;-63
2023/04/10 06:14:59;0.00;0.00;0.62;0.00;0.00;0.62;4.97;4.47;;;23.60;21.50;;;;;;2265275;61;20410;-66
2023/04/10 06:17:49;0.00;0.00;0.62;0.00;0.00;0.62;5.50;5.00;;;23.60;21.50;;;;;;2384149;39;20381;31
2023/04/10 06:20:35;0.00;0.00;0.62;0.00;0.00;0.62;4.77;4.27;;;23.60;21.50;;;;;;2257843;61;20441;-63
2023/04/10 06:23:20;0.00;0.00;0.62;0.00;0.00;0.62;4.70;4.20;;;23.60;21.50;;;;;;2260554;61;21064;-66
2023/04/10 06:26:05;0.00;0.00;0.62;0.00;0.00;0.62;4.77;4.27;;;23.60;21.50;;;;;;2257112;61;20396;-63
2023/04/10 06:28:49;0.00;0.00;0.62;0.00;0.00;0.62;4.80;4.03;;;23.50;21.40;;;;;;2257748;61;20932;-62
2023/04/10 06:31:35;0.00;0.00;0.62;0.00;0.00;0.62;4.80;4.30;;;23.60;21.50;;;;;;2261358;61;20355;-63
2023/04/10 06:34:20;0.00;0.00;0.62;0.00;0.00;0.62;4.77;4.37;;;23.60;21.50;;;;;;2260978;61;20769;-63
2023/04/10 06:37:17;0.00;0.00;0.62;0.00;0.00;0.62;4.13;3.73;;;23.60;21.50;;;;;;2261195;61;20494;-63
2023/04/10 06:40:07;0.00;0.00;0.62;0.00;0.00;0.62;4.97;4.40;;;23.60;21.50;;;;;;2259941;61;20383;-63
2023/04/10 06:42:52;0.00;0.00;0.62;0.00;0.00;0.62;4.77;4.30;;;23.60;21.50;;;;;;2263969;61;20407;-63
2023/04/10 06:45:46;0.00;0.00;0.62;0.00;0.00;0.62;4.67;4.27;;;23.60;21.50;;;;;;2263986;61;20352;-63
2023/04/10 06:48:31;0.00;0.00;0.62;0.00;0.00;0.62;5.20;3.90;;;23.50;21.40;;;;;;2263608;61;20434;-65
2023/04/10 06:51:16;0.00;0.00;0.62;0.00;0.00;0.62;4.33;3.93;;;23.60;21.50;;;;;;2263594;61;20932;-65
2023/04/10 06:54:03;0.00;0.00;0.62;0.00;0.00;0.62;4.90;4.40;;;23.50;21.50;;;;;;2264702;61;20356;-65
2023/04/10 06:56:47;0.00;0.00;0.62;0.00;0.00;0.62;4.20;3.90;;;23.50;21.40;;;;;;2264501;61;20395;-68
2023/04/10 06:59:34;0.00;0.00;0.62;0.00;0.00;0.62;5.10;4.20;;;23.50;21.40;;;;;;2264960;61;20916;-63
2023/04/10 07:02:19;0.00;0.00;0.62;0.00;0.00;0.62;4.10;3.70;;;23.50;21.50;;;;;;2264629;61;20406;-63
2023/04/10 07:05:04;0.00;0.00;0.62;0.00;0.00;0.62;4.40;4.00;;;23.50;21.50;;;;;;2264495;61;20426;-64
2023/04/10 07:07:52;0.00;0.00;0.62;0.00;0.00;0.62;3.80;3.50;;;23.50;21.50;;;;;;2336956;39;20873;-64
2023/04/10 07:10:38;0.00;0.00;0.62;0.00;0.00;0.62;4.07;3.67;;;23.50;21.50;;;;;;2274248;61;20366;-65
2023/04/10 07:13:22;0.00;0.00;0.62;0.00;0.00;0.62;4.33;3.93;;;23.50;21.50;;;;;;2272901;61;20388;-65
2023/04/10 07:16:09;0.00;0.00;0.62;0.00;0.00;0.62;3.90;3.50;;;23.50;21.50;;;;;;2272858;61;20389;-65
2023/04/10 07:18:54;0.00;0.00;0.62;0.00;0.00;0.62;3.90;3.60;;;23.50;21.50;;;;;;2269434;61;20419;-63
2023/04/10 07:21:39;0.00;0.00;0.62;0.00;0.00;0.62;3.83;3.40;;;23.50;21.50;;;;;;2271720;61;20422;-63
2023/04/10 07:24:23;0.00;0.00;0.62;0.00;0.00;0.62;4.83;4.33;;;23.50;21.50;;;;;;2272658;61;20428;-63
2023/04/10 07:27:11;0.00;0.00;0.62;0.00;0.00;0.62;4.00;3.60;;;23.50;21.50;;;;;;2272820;61;21059;-63
2023/04/10 07:29:55;0.00;0.00;0.62;0.00;0.00;0.62;4.60;4.20;;;23.50;21.50;;;;;;2272619;61;20485;-64
2023/04/10 07:32:41;0.00;0.00;0.62;0.00;0.00;0.62;4.13;3.73;;;23.50;21.50;;;;;;2272765;61;20433;-67
2023/04/10 07:35:26;0.00;0.00;0.62;0.00;0.00;0.62;3.70;3.40;;;23.50;21.50;;;;;;2272635;61;20443;-65
2023/04/10 07:41:06;0.00;0.00;0.62;0.00;0.00;0.62;4.67;4.17;;;23.50;21.50;;;;;;2274139;61;20367;-65
2023/04/10 07:43:53;0.00;0.00;0.62;0.00;0.00;0.62;4.20;3.80;;;23.50;21.50;;;;;;2269672;61;20781;-65
2023/04/10 07:46:38;0.00;0.00;0.62;0.00;0.00;0.62;3.93;3.57;;;23.60;21.60;;;;;;2272568;61;20820;-65
2023/04/10 07:49:23;0.00;0.00;0.62;0.00;0.00;0.62;4.80;4.30;;;23.50;21.50;;;;;;2267917;61;20413;-65
2023/04/10 07:52:08;0.00;0.00;0.62;0.00;0.00;0.62;4.10;3.70;;;23.50;21.60;;;;;;2269131;61;20363;-62
2023/04/10 07:54:53;0.00;0.00;0.62;0.00;0.00;0.62;4.20;3.50;;;23.50;21.50;;;;;;2268451;61;20802;-63
2023/04/10 07:57:37;0.00;0.00;0.62;0.00;0.00;0.62;4.33;3.93;;;23.50;21.60;;;;;;2268523;61;20467;-67
2023/04/10 08:00:23;0.00;0.00;0.62;0.00;0.00;0.62;3.70;3.40;;;23.50;21.60;;;;;;2268469;61;20360;-64
2023/04/10 08:03:08;0.00;0.00;0.62;0.00;0.00;0.62;3.97;3.57;;;23.60;21.70;;;;;;2268583;61;20367;-68
2023/04/10 08:05:53;0.00;0.00;0.62;0.00;0.00;0.62;3.73;3.43;;;23.50;21.60;;;;;;2268918;61;20394;-63
2023/04/10 08:08:39;0.00;0.00;0.62;0.00;0.00;0.62;3.43;3.10;;;23.60;21.60;;;;;;2268802;61;20801;-62
2023/04/10 08:11:28;0.00;0.00;0.62;0.00;0.00;0.62;5.00;4.50;;;23.60;21.60;;;;;;2268424;61;20375;-63
2023/04/10 08:14:13;0.00;0.00;0.62;0.00;0.00;0.62;4.13;3.73;;;23.50;21.60;;;;;;2268535;61;20775;-63
2023/04/10 08:17:00;0.00;0.00;0.62;0.00;0.00;0.62;4.27;3.87;;;23.50;21.60;;;;;;2268460;61;20390;-64
2023/04/10 08:19:44;0.00;0.00;0.62;0.00;0.00;0.62;4.80;4.10;;;23.60;21.60;;;;;;2267873;61;20375;-63
2023/04/10 08:22:29;0.00;0.00;0.62;0.00;0.00;0.62;4.27;3.87;;;23.60;21.60;;;;;;2268800;61;20829;-63
2023/04/10 08:25:14;0.00;0.00;0.62;0.00;0.00;0.62;4.17;3.70;;;23.50;21.60;;;;;;2268750;61;20413;-63
2023/04/10 08:27:59;0.00;0.00;0.62;0.00;0.00;0.62;3.77;3.43;;;23.60;22.20;;;;;;2268239;61;20382;-63
2023/04/10 08:30:44;0.00;0.00;0.62;0.00;0.00;0.62;4.40;4.00;;;23.60;21.70;;;;;;2265148;61;20430;-65
2023/04/10 08:33:31;0.00;0.00;0.62;0.00;0.00;0.62;4.07;3.67;;;23.60;21.70;;;;;;2268284;61;20986;-65
2023/04/10 08:36:16;0.00;0.00;0.62;0.00;0.00;0.62;4.60;3.90;;;23.60;21.70;;;;;;2268392;61;20414;-65
2023/04/10 08:39:00;0.00;0.00;0.62;0.00;0.00;0.62;4.27;3.87;;;23.60;21.70;;;;;;2268268;60;20406;-63
2023/04/10 08:41:45;0.00;0.00;0.62;0.00;0.00;0.62;4.00;3.60;;;23.60;21.70;;;;;;2265384;61;20363;-64
2023/04/10 08:44:30;0.00;0.00;0.62;0.00;0.00;0.62;4.27;3.87;;;23.60;21.70;;;;;;2268389;61;20403;-63
2023/04/10 08:47:18;0.00;0.00;0.62;0.00;0.00;0.62;4.40;4.00;;;23.60;21.70;;;;;;2268619;61;20891;-65
2023/04/10 08:50:07;0.00;0.00;0.62;0.00;0.00;0.62;3.77;3.47;;;23.60;21.70;;;;;;2267867;61;20931;-65
2023/04/10 08:52:54;0.00;0.00;0.62;0.00;0.00;0.62;3.57;3.07;;;23.60;21.70;;;;;;2268507;61;20371;-63
2023/04/10 08:55:40;0.00;0.00;0.62;0.00;0.00;0.62;3.70;3.27;;;23.60;22.20;;;;;;2268209;61;20430;-65
2023/04/10 08:58:25;0.00;0.00;0.62;0.00;0.00;0.62;3.57;3.27;;;23.60;21.70;;;;;;2268839;61;20390;-63
2023/04/10 09:01:10;0.00;0.00;0.62;0.00;0.00;0.62;4.10;3.70;;;23.60;21.60;;;;;;2268279;61;20915;-63
2023/04/10 09:03:56;0.00;0.00;0.62;0.00;0.00;0.62;4.00;3.60;;;23.60;21.70;;;;;;2265106;61;20359;-63
2023/04/10 09:06:42;0.00;0.00;0.62;0.00;0.00;0.62;3.53;3.23;;;23.60;21.70;;;;;;2268872;61;20402;-63
2023/04/10 09:09:31;0.00;0.00;0.62;0.00;0.00;0.62;3.63;3.33;;;23.70;21.70;;;;;;2268231;61;20409;-63
2023/04/10 09:12:15;0.00;0.00;0.62;0.00;0.00;0.62;3.50;3.07;;;23.70;21.70;;;;;;2268605;61;20355;-63
2023/04/10 09:15:00;0.00;0.00;0.62;0.00;0.00;0.62;3.40;3.10;;;23.60;21.70;;;;;;2268527;61;20370;-66
2023/04/10 09:17:59;0.00;0.00;0.62;0.00;0.00;0.62;3.87;3.37;;;23.70;21.70;;;;;;2268313;61;20806;-63
2023/04/10 09:20:50;0.00;0.00;0.62;0.00;0.00;0.62;3.77;3.30;;;23.70;21.70;;;;;;2268442;61;20352;-67
2023/04/10 09:23:36;0.00;0.00;0.62;0.00;0.00;0.62;3.20;2.80;;;23.70;21.80;;;;;;2268537;61;21141;-65
2023/04/10 09:26:24;0.00;0.00;0.62;0.00;0.00;0.62;3.97;3.23;;;23.70;21.80;;;;;;2268195;61;20371;-64
2023/04/10 09:29:11;0.00;0.00;0.62;0.00;0.00;0.62;3.30;3.00;;;23.70;21.80;;;;;;2268136;61;20398;-64
2023/04/10 09:31:55;0.00;0.00;0.62;0.00;0.00;0.62;4.23;3.10;;;23.70;21.80;;;;;;2268584;61;20891;-63
2023/04/10 09:34:55;0.00;0.00;0.62;0.00;0.00;0.62;3.77;3.47;;;23.70;21.80;;;;;;2268099;61;20898;-63
2023/04/10 09:37:44;0.00;0.00;0.62;0.00;0.00;0.62;3.70;2.93;;;23.70;21.80;;;;;;2349360;39;20380;-65
2023/04/10 09:40:30;0.00;0.00;0.62;0.00;0.00;0.62;3.87;3.47;;;23.70;21.80;;;;;;2273512;61;20369;-67
2023/04/10 09:43:24;0.00;0.00;0.62;0.00;0.00;0.62;4.37;3.80;;;23.70;21.80;;;;;;2272472;61;20500;-64
2023/04/10 09:46:09;0.00;0.00;0.62;0.00;0.00;0.62;3.83;3.53;;;23.80;22.40;;;;;;2272351;61;20358;-63
2023/04/10 09:48:59;0.00;0.00;0.62;0.00;0.00;0.62;4.20;3.80;;;23.80;21.90;;;;;;2271946;61;20378;-64
2023/04/10 09:51:46;0.00;0.00;0.62;0.00;0.00;0.62;4.13;3.73;;;23.80;21.90;;;;;;2272434;61;20824;-63
2023/04/10 09:54:37;0.00;0.00;0.62;0.00;0.00;0.62;4.33;3.93;;;23.80;21.90;;;;;;2272111;61;20366;-64
2023/04/10 09:57:25;0.00;0.00;0.62;0.00;0.00;0.62;4.37;3.97;;;23.80;21.90;;;;;;2272445;61;20390;-65
2023/04/10 10:00:13;0.00;0.00;0.62;0.00;0.00;0.62;3.90;3.50;;;23.80;21.90;;;;;;2272125;61;20459;-65
2023/04/10 10:02:59;0.00;0.00;0.62;0.00;0.00;0.62;4.30;3.90;;;23.80;21.90;;;;;;2272438;61;20366;-64
2023/04/10 10:05:47;0.00;0.00;0.62;0.00;0.00;0.62;3.73;3.37;;;23.80;21.90;;;;;;2269399;61;20376;-64
2023/04/10 10:08:33;0.00;0.00;0.62;0.00;0.00;0.62;3.60;3.30;;;23.90;22.00;;;;;;2272386;61;20432;-63
2023/04/10 10:11:21;0.00;0.00;0.62;0.00;0.00;0.62;3.50;3.20;;;23.90;22.00;;;;;;2272542;61;20442;-63
2023/04/10 10:14:15;0.00;0.00;0.62;0.00;0.00;0.62;4.20;3.77;;;23.90;22.00;;;;;;2272483;61;20358;-63
2023/04/10 10:17:06;0.00;0.00;0.62;0.00;0.00;0.62;4.07;3.70;;;23.90;22.00;;;;;;2272094;61;20425;-66
2023/04/10 10:20:01;0.00;0.00;0.62;0.00;0.00;0.62;5.33;4.27;;;23.90;22.00;;;;;;2269123;61;20394;-64
2023/04/10 10:22:46;0.00;0.00;0.62;0.00;0.00;0.62;4.23;3.80;;;23.90;22.10;;;;;;2272291;61;20420;-63
2023/04/10 10:25:34;0.00;0.00;0.62;0.00;0.00;0.62;4.30;3.90;;;24.00;22.10;;;;;;2272265;60;20404;-68
2023/04/10 10:28:20;0.00;0.00;0.62;0.00;0.00;0.62;4.33;3.93;;;23.90;22.00;;;;;;2273093;61;20473;-63
2023/04/10 10:31:06;0.00;0.00;0.62;0.00;0.00;0.62;4.23;3.87;;;24.00;22.10;;;;;;2272704;61;20449;-63
2023/04/10 10:33:52;0.00;0.00;0.62;0.00;0.00;0.62;4.10;3.70;;;24.00;22.10;;;;;;2272953;61;20367;-64
2023/04/10 10:36:39;0.00;0.00;0.62;0.00;0.00;0.62;5.90;4.73;;;24.00;22.10;;;;;;2273080;61;20974;-66
2023/04/10 10:39:34;0.00;0.00;0.62;0.00;0.00;0.62;5.57;5.00;;;24.00;22.10;;;;;;2274749;60;20381;-64
2023/04/10 10:42:29;0.00;0.00;0.62;0.00;0.00;0.62;5.10;4.60;;;24.00;22.10;;;;;;2277162;60;20935;-63
2023/04/10 10:45:18;0.00;0.00;0.62;0.00;0.00;0.62;5.33;4.83;;;24.00;22.10;;;;;;2273821;60;20439;-64
2023/04/10 10:50:59;0.00;0.00;0.62;0.00;0.00;0.62;5.47;4.97;;;24.10;22.20;;;;;;2274098;61;20381;-64
2023/04/10 10:53:44;0.00;0.00;0.62;0.00;0.00;0.62;6.40;5.40;;;24.10;22.20;;;;;;2272687;61;20875;-63
2023/04/10 10:56:34;0.00;0.00;0.62;0.00;0.00;0.62;5.80;5.07;;;24.10;22.20;;;;;;2273302;61;20948;-64
2023/04/10 10:59:55;0.00;0.00;0.62;0.00;0.00;0.62;5.90;5.30;;;24.10;22.20;;;;;;2268621;61;20485;-64
2023/04/10 11:02:40;0.00;0.00;0.62;0.00;0.00;0.62;6.27;5.23;;;24.20;22.30;;;;;;2268948;61;20399;-64
2023/04/10 11:05:50;0.00;0.00;0.62;0.00;0.00;0.62;6.20;5.60;;;24.20;22.30;;;;;;2269064;61;20406;-64
2023/04/10 11:08:43;0.00;0.00;0.62;0.00;0.00;0.62;6.00;5.50;;;24.20;22.30;;;;;;2268304;61;20433;-64
2023/04/10 11:11:28;0.00;0.00;0.62;0.00;0.00;0.62;5.57;4.80;;;24.20;22.30;;;;;;2269076;61;20455;-64
2023/04/10 11:14:16;0.00;0.00;0.62;0.00;0.00;0.62;6.20;5.60;;;24.30;22.30;;;;;;2268833;61;20359;-64
2023/04/10 11:17:01;0.00;0.00;0.62;0.00;0.00;0.62;6.83;5.83;;;24.30;22.40;;;;;;2268504;61;20814;-65